sensor_id;sensor_type;location;lat;lon;timestamp;P1;durP1;ratioP1;P2;durP2;ratioP2
70953;SDS011;58618;47.490;8.736;2023-04-25T00:02:05;3.80;;;2.03;;
70953;SDS011;58618;47.490;8.736;2023-04-25T00:04:53;3.30;;;1.60;;
70953;SDS011;58618;47.490;8.736;2023-04-25T00:07:45;1.73;;;1.52;;
70953;SDS011;58618;47.490;8.736;2023-04-25T00:10:34;2.60;;;1.90;;
70953;SDS011;58618;47.490;8.736;2023-04-25T00:13:21;4.95;;;1.63;;
70953;SDS011;58618;47.490;8.736;2023-04-25T00:16:09;3.00;;;1.90;;
70953;SDS011;58618;47.490;8.736;2023-04-25T00:18:57;2.07;;;1.33;;
70953;SDS011;58618;47.490;8.736;2023-04-25T00:21:45;4.35;;;2.00;;
70953;SDS011;58618;47.490;8.736;2023-04-25T00:24:34;3.00;;;1.85;;
70953;SDS011;58618;47.490;8.736;2023-04-25T00:27:22;2.40;;;1.77;;
70953;SDS011;58618;47.490;8.736;2023-04-25T00:30:10;3.13;;;1.70;;
70953;SDS011;58618;47.490;8.736;2023-04-25T00:32:59;3.03;;;1.73;;
70953;SDS011;58618;47.490;8.736;2023-04-25T00:35:47;2.45;;;1.63;;
70953;SDS011;58618;47.490;8.736;2023-04-25T00:38:34;2.75;;;1.73;;
70953;SDS011;58618;47.490;8.736;2023-04-25T00:41:26;2.67;;;1.80;;
70953;SDS011;58618;47.490;8.736;2023-04-25T00:44:13;3.00;;;1.85;;
70953;SDS011;58618;47.490;8.736;2023-04-25T00:47:02;5.53;;;1.87;;
70953;SDS011;58618;47.490;8.736;2023-04-25T00:49:50;3.10;;;2.00;;
70953;SDS011;58618;47.490;8.736;2023-04-25T00:52:39;3.88;;;2.08;;
70953;SDS011;58618;47.490;8.736;2023-04-25T00:55:28;3.35;;;2.05;;
70953;SDS011;58618;47.490;8.736;2023-04-25T00:58:18;3.65;;;1.73;;
70953;SDS011;58618;47.490;8.736;2023-04-25T01:01:06;2.60;;;1.67;;
70953;SDS011;58618;47.490;8.736;2023-04-25T01:03:55;6.78;;;2.17;;
70953;SDS011;58618;47.490;8.736;2023-04-25T01:06:45;2.95;;;1.77;;
70953;SDS011;58618;47.490;8.736;2023-04-25T01:09:32;2.78;;;1.70;;
70953;SDS011;58618;47.490;8.736;2023-04-25T01:12:20;2.70;;;2.10;;
70953;SDS011;58618;47.490;8.736;2023-04-25T01:15:09;3.03;;;1.97;;
70953;SDS011;58618;47.490;8.736;2023-04-25T01:17:57;2.28;;;1.50;;
70953;SDS011;58618;47.490;8.736;2023-04-25T01:20:44;2.35;;;1.52;;
70953;SDS011;58618;47.490;8.736;2023-04-25T01:23:34;2.50;;;1.75;;
70953;SDS011;58618;47.490;8.736;2023-04-25T01:26:22;3.25;;;1.90;;
70953;SDS011;58618;47.490;8.736;2023-04-25T01:29:10;3.10;;;2.00;;
70953;SDS011;58618;47.490;8.736;2023-04-25T01:31:58;2.28;;;1.50;;
70953;SDS011;58618;47.490;8.736;2023-04-25T01:34:46;2.88;;;1.83;;
70953;SDS011;58618;47.490;8.736;2023-04-25T01:37:33;2.50;;;1.77;;
70953;SDS011;58618;47.490;8.736;2023-04-25T01:40:22;2.28;;;1.70;;
70953;SDS011;58618;47.490;8.736;2023-04-25T01:43:11;2.90;;;1.77;;
70953;SDS011;58618;47.490;8.736;2023-04-25T01:46:00;2.92;;;1.60;;
70953;SDS011;58618;47.490;8.736;2023-04-25T01:48:47;3.78;;;1.70;;
70953;SDS011;58618;47.490;8.736;2023-04-25T01:51:35;3.42;;;2.10;;
70953;SDS011;58618;47.490;8.736;2023-04-25T01:54:22;2.13;;;1.48;;
70953;SDS011;58618;47.490;8.736;2023-04-25T01:57:11;1.90;;;1.53;;
70953;SDS011;58618;47.490;8.736;2023-04-25T01:59:58;3.83;;;1.80;;
70953;SDS011;58618;47.490;8.736;2023-04-25T02:02:47;3.70;;;2.00;;
70953;SDS011;58618;47.490;8.736;2023-04-25T02:05:36;3.20;;;2.00;;
70953;SDS011;58618;47.490;8.736;2023-04-25T02:08:24;2.20;;;1.60;;
70953;SDS011;58618;47.490;8.736;2023-04-25T02:11:12;2.60;;;1.60;;
70953;SDS011;58618;47.490;8.736;2023-04-25T02:14:01;4.70;;;2.00;;
70953;SDS011;58618;47.490;8.736;2023-04-25T02:16:48;4.72;;;2.00;;
70953;SDS011;58618;47.490;8.736;2023-04-25T02:19:37;3.45;;;1.70;;
70953;SDS011;58618;47.490;8.736;2023-04-25T02:22:24;3.00;;;1.90;;
70953;SDS011;58618;47.490;8.736;2023-04-25T02:25:12;2.77;;;1.50;;
70953;SDS011;58618;47.490;8.736;2023-04-25T02:28:00;2.72;;;1.63;;
70953;SDS011;58618;47.490;8.736;2023-04-25T02:30:48;2.50;;;1.63;;
70953;SDS011;58618;47.490;8.736;2023-04-25T02:33:35;5.35;;;1.52;;
70953;SDS011;58618;47.490;8.736;2023-04-25T02:36:23;4.75;;;2.10;;
70953;SDS011;58618;47.490;8.736;2023-04-25T02:39:12;2.33;;;1.43;;
70953;SDS011;58618;47.490;8.736;2023-04-25T02:41:59;3.20;;;1.67;;
70953;SDS011;58618;47.490;8.736;2023-04-25T02:44:46;3.65;;;1.85;;
70953;SDS011;58618;47.490;8.736;2023-04-25T02:47:35;2.75;;;1.60;;
70953;SDS011;58618;47.490;8.736;2023-04-25T02:50:23;4.68;;;2.08;;
70953;SDS011;58618;47.490;8.736;2023-04-25T02:53:10;2.90;;;1.67;;
70953;SDS011;58618;47.490;8.736;2023-04-25T02:55:57;2.38;;;1.50;;
70953;SDS011;58618;47.490;8.736;2023-04-25T02:58:45;3.00;;;1.80;;
70953;SDS011;58618;47.490;8.736;2023-04-25T03:01:32;2.97;;;1.88;;
70953;SDS011;58618;47.490;8.736;2023-04-25T03:04:21;2.85;;;1.73;;
70953;SDS011;58618;47.490;8.736;2023-04-25T03:07:09;2.13;;;1.33;;
70953;SDS011;58618;47.490;8.736;2023-04-25T03:09:57;2.72;;;1.70;;
70953;SDS011;58618;47.490;8.736;2023-04-25T03:12:44;3.30;;;1.30;;
70953;SDS011;58618;47.490;8.736;2023-04-25T03:15:31;1.70;;;1.45;;
70953;SDS011;58618;47.490;8.736;2023-04-25T03:18:18;2.03;;;1.60;;
70953;SDS011;58618;47.490;8.736;2023-04-25T03:21:07;2.63;;;1.60;;
70953;SDS011;58618;47.490;8.736;2023-04-25T03:23:54;2.30;;;1.25;;
70953;SDS011;58618;47.490;8.736;2023-04-25T03:26:42;3.05;;;2.05;;
70953;SDS011;58618;47.490;8.736;2023-04-25T03:29:29;2.72;;;1.58;;
70953;SDS011;58618;47.490;8.736;2023-04-25T03:32:16;4.18;;;1.52;;
70953;SDS011;58618;47.490;8.736;2023-04-25T03:35:04;3.03;;;1.73;;
70953;SDS011;58618;47.490;8.736;2023-04-25T03:37:53;3.80;;;2.08;;
70953;SDS011;58618;47.490;8.736;2023-04-25T03:40:40;2.75;;;1.70;;
70953;SDS011;58618;47.490;8.736;2023-04-25T03:43:28;2.55;;;1.45;;
70953;SDS011;58618;47.490;8.736;2023-04-25T03:46:15;3.42;;;1.98;;
70953;SDS011;58618;47.490;8.736;2023-04-25T03:49:03;5.13;;;1.80;;
70953;SDS011;58618;47.490;8.736;2023-04-25T03:51:50;3.15;;;1.83;;
70953;SDS011;58618;47.490;8.736;2023-04-25T03:54:39;4.90;;;1.60;;
70953;SDS011;58618;47.490;8.736;2023-04-25T03:57:26;2.58;;;1.60;;
70953;SDS011;58618;47.490;8.736;2023-04-25T04:00:13;3.78;;;1.80;;
70953;SDS011;58618;47.490;8.736;2023-04-25T04:03:02;2.60;;;1.60;;
70953;SDS011;58618;47.490;8.736;2023-04-25T04:05:49;2.10;;;1.27;;
70953;SDS011;58618;47.490;8.736;2023-04-25T04:08:37;1.88;;;1.30;;
70953;SDS011;58618;47.490;8.736;2023-04-25T04:11:25;3.65;;;1.55;;
70953;SDS011;58618;47.490;8.736;2023-04-25T04:14:12;2.33;;;1.55;;
70953;SDS011;58618;47.490;8.736;2023-04-25T04:17:00;3.10;;;1.47;;
70953;SDS011;58618;47.490;8.736;2023-04-25T04:19:47;2.35;;;1.40;;
70953;SDS011;58618;47.490;8.736;2023-04-25T04:22:35;2.42;;;1.60;;
70953;SDS011;58618;47.490;8.736;2023-04-25T04:25:22;3.65;;;2.05;;
70953;SDS011;58618;47.490;8.736;2023-04-25T04:28:11;4.78;;;2.20;;
70953;SDS011;58618;47.490;8.736;2023-04-25T04:30:59;3.80;;;1.80;;
70953;SDS011;58618;47.490;8.736;2023-04-25T04:33:46;3.90;;;2.22;;
70953;SDS011;58618;47.490;8.736;2023-04-25T04:36:34;3.25;;;1.90;;
70953;SDS011;58618;47.490;8.736;2023-04-25T04:39:21;2.97;;;1.40;;
70953;SDS011;58618;47.490;8.736;2023-04-25T04:42:08;2.42;;;1.65;;
70953;SDS011;58618;47.490;8.736;2023-04-25T04:44:58;5.70;;;1.77;;
70953;SDS011;58618;47.490;8.736;2023-04-25T04:47:47;2.10;;;1.58;;
70953;SDS011;58618;47.490;8.736;2023-04-25T04:50:35;2.53;;;1.63;;
70953;SDS011;58618;47.490;8.736;2023-04-25T04:53:22;2.55;;;1.80;;
70953;SDS011;58618;47.490;8.736;2023-04-25T04:56:09;1.90;;;1.42;;
70953;SDS011;58618;47.490;8.736;2023-04-25T04:58:57;2.70;;;1.60;;
70953;SDS011;58618;47.490;8.736;2023-04-25T05:01:46;2.85;;;1.95;;
70953;SDS011;58618;47.490;8.736;2023-04-25T05:04:34;6.60;;;2.17;;
70953;SDS011;58618;47.490;8.736;2023-04-25T05:07:21;2.40;;;1.73;;
70953;SDS011;58618;47.490;8.736;2023-04-25T05:10:08;3.65;;;1.70;;
70953;SDS011;58618;47.490;8.736;2023-04-25T05:12:57;2.33;;;1.80;;
70953;SDS011;58618;47.490;8.736;2023-04-25T05:15:44;2.40;;;1.77;;
70953;SDS011;58618;47.490;8.736;2023-04-25T05:18:33;2.40;;;1.75;;
70953;SDS011;58618;47.490;8.736;2023-04-25T05:21:20;7.30;;;2.35;;
70953;SDS011;58618;47.490;8.736;2023-04-25T05:24:07;2.92;;;2.20;;
70953;SDS011;58618;47.490;8.736;2023-04-25T05:26:54;3.10;;;1.97;;
70953;SDS011;58618;47.490;8.736;2023-04-25T05:29:42;3.10;;;1.88;;
70953;SDS011;58618;47.490;8.736;2023-04-25T05:32:29;4.18;;;2.28;;
70953;SDS011;58618;47.490;8.736;2023-04-25T05:35:18;3.25;;;2.13;;
70953;SDS011;58618;47.490;8.736;2023-04-25T05:38:05;6.30;;;2.20;;
70953;SDS011;58618;47.490;8.736;2023-04-25T05:40:52;4.77;;;2.13;;
70953;SDS011;58618;47.490;8.736;2023-04-25T05:43:40;4.00;;;2.50;;
70953;SDS011;58618;47.490;8.736;2023-04-25T05:46:30;2.97;;;2.20;;
70953;SDS011;58618;47.490;8.736;2023-04-25T05:49:18;3.25;;;2.03;;
70953;SDS011;58618;47.490;8.736;2023-04-25T05:52:07;2.85;;;1.80;;
70953;SDS011;58618;47.490;8.736;2023-04-25T05:54:55;2.97;;;1.90;;
70953;SDS011;58618;47.490;8.736;2023-04-25T05:57:42;4.25;;;2.22;;
70953;SDS011;58618;47.490;8.736;2023-04-25T06:00:30;2.90;;;1.67;;
70953;SDS011;58618;47.490;8.736;2023-04-25T06:03:18;2.40;;;1.88;;
70953;SDS011;58618;47.490;8.736;2023-04-25T06:06:06;5.68;;;2.03;;
70953;SDS011;58618;47.490;8.736;2023-04-25T06:08:54;2.20;;;1.77;;
70953;SDS011;58618;47.490;8.736;2023-04-25T06:11:42;2.30;;;1.38;;
70953;SDS011;58618;47.490;8.736;2023-04-25T06:14:29;1.83;;;1.27;;
70953;SDS011;58618;47.490;8.736;2023-04-25T06:17:16;2.03;;;1.35;;
70953;SDS011;58618;47.490;8.736;2023-04-25T06:20:04;2.53;;;1.48;;
70953;SDS011;58618;47.490;8.736;2023-04-25T06:22:53;3.83;;;1.63;;
70953;SDS011;58618;47.490;8.736;2023-04-25T06:25:41;5.22;;;1.88;;
70953;SDS011;58618;47.490;8.736;2023-04-25T06:28:29;3.42;;;1.90;;
70953;SDS011;58618;47.490;8.736;2023-04-25T06:31:16;4.07;;;1.40;;
70953;SDS011;58618;47.490;8.736;2023-04-25T06:34:03;2.35;;;1.40;;
70953;SDS011;58618;47.490;8.736;2023-04-25T06:36:50;2.30;;;1.33;;
70953;SDS011;58618;47.490;8.736;2023-04-25T06:39:38;2.83;;;1.48;;
70953;SDS011;58618;47.490;8.736;2023-04-25T06:42:26;3.80;;;1.40;;
70953;SDS011;58618;47.490;8.736;2023-04-25T06:45:14;1.40;;;1.15;;
70953;SDS011;58618;47.490;8.736;2023-04-25T06:48:01;2.53;;;1.40;;
70953;SDS011;58618;47.490;8.736;2023-04-25T06:50:48;4.70;;;1.93;;
70953;SDS011;58618;47.490;8.736;2023-04-25T06:53:35;2.90;;;1.60;;
70953;SDS011;58618;47.490;8.736;2023-04-25T06:56:23;4.13;;;1.60;;
70953;SDS011;58618;47.490;8.736;2023-04-25T06:59:12;2.10;;;1.50;;
70953;SDS011;58618;47.490;8.736;2023-04-25T07:01:59;3.25;;;1.85;;
70953;SDS011;58618;47.490;8.736;2023-04-25T07:04:46;3.67;;;1.70;;
70953;SDS011;58618;47.490;8.736;2023-04-25T07:07:34;2.67;;;1.90;;
70953;SDS011;58618;47.490;8.736;2023-04-25T07:10:21;2.42;;;1.90;;
70953;SDS011;58618;47.490;8.736;2023-04-25T07:13:08;3.38;;;1.65;;
70953;SDS011;58618;47.490;8.736;2023-04-25T07:15:57;2.75;;;1.90;;
70953;SDS011;58618;47.490;8.736;2023-04-25T07:18:45;2.83;;;2.00;;
70953;SDS011;58618;47.490;8.736;2023-04-25T07:21:32;3.22;;;2.00;;
70953;SDS011;58618;47.490;8.736;2023-04-25T07:24:19;6.68;;;2.10;;
70953;SDS011;58618;47.490;8.736;2023-04-25T07:27:07;2.13;;;1.48;;
70953;SDS011;58618;47.490;8.736;2023-04-25T07:29:54;3.95;;;1.70;;
70953;SDS011;58618;47.490;8.736;2023-04-25T07:32:43;3.27;;;2.23;;
70953;SDS011;58618;47.490;8.736;2023-04-25T07:35:31;3.30;;;1.98;;
70953;SDS011;58618;47.490;8.736;2023-04-25T07:38:18;2.28;;;1.60;;
70953;SDS011;58618;47.490;8.736;2023-04-25T07:41:05;2.78;;;1.73;;
70953;SDS011;58618;47.490;8.736;2023-04-25T07:43:53;2.63;;;1.65;;
70953;SDS011;58618;47.490;8.736;2023-04-25T07:46:40;3.60;;;1.90;;
70953;SDS011;58618;47.490;8.736;2023-04-25T07:49:28;2.05;;;1.50;;
70953;SDS011;58618;47.490;8.736;2023-04-25T07:52:16;3.15;;;1.42;;
70953;SDS011;58618;47.490;8.736;2023-04-25T07:55:03;4.28;;;1.40;;
70953;SDS011;58618;47.490;8.736;2023-04-25T07:57:51;2.33;;;1.42;;
70953;SDS011;58618;47.490;8.736;2023-04-25T08:00:39;1.93;;;1.40;;
70953;SDS011;58618;47.490;8.736;2023-04-25T08:03:27;1.52;;;1.20;;
70953;SDS011;58618;47.490;8.736;2023-04-25T08:06:16;2.03;;;1.35;;
70953;SDS011;58618;47.490;8.736;2023-04-25T08:09:03;1.67;;;1.27;;
70953;SDS011;58618;47.490;8.736;2023-04-25T08:11:51;2.05;;;1.52;;
70953;SDS011;58618;47.490;8.736;2023-04-25T08:14:38;2.23;;;1.20;;
70953;SDS011;58618;47.490;8.736;2023-04-25T08:17:26;2.00;;;1.15;;
70953;SDS011;58618;47.490;8.736;2023-04-25T08:20:13;2.15;;;1.30;;
70953;SDS011;58618;47.490;8.736;2023-04-25T08:23:02;2.08;;;1.30;;
70953;SDS011;58618;47.490;8.736;2023-04-25T08:25:49;1.55;;;1.10;;
70953;SDS011;58618;47.490;8.736;2023-04-25T08:28:36;2.07;;;1.50;;
70953;SDS011;58618;47.490;8.736;2023-04-25T08:31:24;2.55;;;1.08;;
70953;SDS011;58618;47.490;8.736;2023-04-25T08:34:12;2.35;;;1.00;;
70953;SDS011;58618;47.490;8.736;2023-04-25T08:36:59;1.58;;;1.20;;
70953;SDS011;58618;47.490;8.736;2023-04-25T08:39:48;1.80;;;1.42;;
70953;SDS011;58618;47.490;8.736;2023-04-25T08:42:38;1.93;;;1.30;;
70953;SDS011;58618;47.490;8.736;2023-04-25T08:45:27;1.73;;;1.50;;
70953;SDS011;58618;47.490;8.736;2023-04-25T08:48:18;1.70;;;1.02;;
70953;SDS011;58618;47.490;8.736;2023-04-25T08:51:06;2.15;;;1.45;;
70953;SDS011;58618;47.490;8.736;2023-04-25T08:53:54;1.98;;;1.42;;
70953;SDS011;58618;47.490;8.736;2023-04-25T08:56:45;1.93;;;1.27;;
70953;SDS011;58618;47.490;8.736;2023-04-25T08:59:34;1.65;;;1.10;;
70953;SDS011;58618;47.490;8.736;2023-04-25T09:02:23;2.00;;;1.23;;
70953;SDS011;58618;47.490;8.736;2023-04-25T09:05:12;1.20;;;1.08;;
70953;SDS011;58618;47.490;8.736;2023-04-25T09:08:00;3.88;;;1.38;;
70953;SDS011;58618;47.490;8.736;2023-04-25T09:10:47;1.57;;;1.13;;
70953;SDS011;58618;47.490;8.736;2023-04-25T09:13:36;1.60;;;1.20;;
70953;SDS011;58618;47.490;8.736;2023-04-25T09:16:23;2.05;;;0.98;;
70953;SDS011;58618;47.490;8.736;2023-04-25T09:19:15;3.92;;;1.70;;
70953;SDS011;58618;47.490;8.736;2023-04-25T09:22:08;1.52;;;1.10;;
70953;SDS011;58618;47.490;8.736;2023-04-25T09:24:55;2.13;;;1.43;;
70953;SDS011;58618;47.490;8.736;2023-04-25T09:27:49;1.55;;;1.00;;
70953;SDS011;58618;47.490;8.736;2023-04-25T09:30:39;1.80;;;1.25;;
70953;SDS011;58618;47.490;8.736;2023-04-25T09:33:27;1.80;;;1.20;;
70953;SDS011;58618;47.490;8.736;2023-04-25T09:36:15;1.60;;;1.40;;
70953;SDS011;58618;47.490;8.736;2023-04-25T09:39:03;1.90;;;1.30;;
70953;SDS011;58618;47.490;8.736;2023-04-25T09:42:01;1.50;;;1.20;;
70953;SDS011;58618;47.490;8.736;2023-04-25T09:44:51;1.50;;;1.10;;
70953;SDS011;58618;47.490;8.736;2023-04-25T09:47:40;1.38;;;1.00;;
70953;SDS011;58618;47.490;8.736;2023-04-25T09:50:29;1.77;;;1.10;;
70953;SDS011;58618;47.490;8.736;2023-04-25T09:53:16;1.63;;;0.97;;
70953;SDS011;58618;47.490;8.736;2023-04-25T09:56:04;4.32;;;1.00;;
70953;SDS011;58618;47.490;8.736;2023-04-25T09:58:53;1.38;;;0.70;;
70953;SDS011;58618;47.490;8.736;2023-04-25T10:01:41;1.13;;;0.90;;
70953;SDS011;58618;47.490;8.736;2023-04-25T10:04:31;1.20;;;1.00;;
70953;SDS011;58618;47.490;8.736;2023-04-25T10:07:22;1.60;;;0.90;;
70953;SDS011;58618;47.490;8.736;2023-04-25T10:10:12;1.70;;;1.10;;
70953;SDS011;58618;47.490;8.736;2023-04-25T10:13:00;1.20;;;1.00;;
70953;SDS011;58618;47.490;8.736;2023-04-25T10:15:47;2.58;;;1.00;;
70953;SDS011;58618;47.490;8.736;2023-04-25T10:18:35;1.15;;;0.98;;
70953;SDS011;58618;47.490;8.736;2023-04-25T10:21:24;1.17;;;1.00;;
70953;SDS011;58618;47.490;8.736;2023-04-25T10:24:16;1.20;;;0.95;;
70953;SDS011;58618;47.490;8.736;2023-04-25T10:27:04;1.10;;;0.90;;
70953;SDS011;58618;47.490;8.736;2023-04-25T10:29:59;0.98;;;0.88;;
70953;SDS011;58618;47.490;8.736;2023-04-25T10:32:48;1.10;;;0.95;;
70953;SDS011;58618;47.490;8.736;2023-04-25T10:35:36;1.20;;;0.80;;
70953;SDS011;58618;47.490;8.736;2023-04-25T10:38:26;1.10;;;0.90;;
70953;SDS011;58618;47.490;8.736;2023-04-25T10:41:14;0.90;;;0.70;;
70953;SDS011;58618;47.490;8.736;2023-04-25T10:44:01;1.20;;;1.00;;
70953;SDS011;58618;47.490;8.736;2023-04-25T10:46:51;1.25;;;0.88;;
70953;SDS011;58618;47.490;8.736;2023-04-25T10:49:41;0.87;;;0.73;;
70953;SDS011;58618;47.490;8.736;2023-04-25T10:52:29;0.90;;;0.75;;
70953;SDS011;58618;47.490;8.736;2023-04-25T10:55:18;0.90;;;0.70;;
70953;SDS011;58618;47.490;8.736;2023-04-25T10:58:07;1.30;;;0.70;;
70953;SDS011;58618;47.490;8.736;2023-04-25T11:00:54;0.98;;;0.85;;
70953;SDS011;58618;47.490;8.736;2023-04-25T11:03:42;0.90;;;0.60;;
70953;SDS011;58618;47.490;8.736;2023-04-25T11:06:33;1.88;;;0.90;;
70953;SDS011;58618;47.490;8.736;2023-04-25T11:09:30;0.80;;;0.77;;
70953;SDS011;58618;47.490;8.736;2023-04-25T11:12:18;0.82;;;0.80;;
70953;SDS011;58618;47.490;8.736;2023-04-25T11:15:06;1.20;;;0.90;;
70953;SDS011;58618;47.490;8.736;2023-04-25T11:17:54;1.10;;;0.90;;
70953;SDS011;58618;47.490;8.736;2023-04-25T11:20:42;1.20;;;1.00;;
70953;SDS011;58618;47.490;8.736;2023-04-25T11:23:30;1.15;;;0.80;;
70953;SDS011;58618;47.490;8.736;2023-04-25T11:26:18;1.27;;;1.10;;
70953;SDS011;58618;47.490;8.736;2023-04-25T11:29:08;1.10;;;0.93;;
70953;SDS011;58618;47.490;8.736;2023-04-25T11:31:55;0.90;;;0.80;;
70953;SDS011;58618;47.490;8.736;2023-04-25T11:34:44;1.25;;;0.90;;
70953;SDS011;58618;47.490;8.736;2023-04-25T11:37:32;0.88;;;0.75;;
70953;SDS011;58618;47.490;8.736;2023-04-25T11:40:19;1.00;;;0.90;;
70953;SDS011;58618;47.490;8.736;2023-04-25T11:43:10;1.25;;;1.10;;
70953;SDS011;58618;47.490;8.736;2023-04-25T11:45:58;0.97;;;0.80;;
70953;SDS011;58618;47.490;8.736;2023-04-25T11:48:46;1.25;;;0.90;;
70953;SDS011;58618;47.490;8.736;2023-04-25T11:51:37;1.45;;;0.98;;
70953;SDS011;58618;47.490;8.736;2023-04-25T11:54:25;1.45;;;1.10;;
70953;SDS011;58618;47.490;8.736;2023-04-25T11:57:13;1.10;;;0.90;;
70953;SDS011;58618;47.490;8.736;2023-04-25T12:00:08;1.40;;;1.20;;
70953;SDS011;58618;47.490;8.736;2023-04-25T12:02:59;1.75;;;1.02;;
70953;SDS011;58618;47.490;8.736;2023-04-25T12:05:48;1.88;;;1.10;;
70953;SDS011;58618;47.490;8.736;2023-04-25T12:08:37;1.10;;;1.00;;
70953;SDS011;58618;47.490;8.736;2023-04-25T12:11:24;2.10;;;1.40;;
70953;SDS011;58618;47.490;8.736;2023-04-25T12:14:11;1.93;;;1.10;;
70953;SDS011;58618;47.490;8.736;2023-04-25T12:17:00;1.63;;;1.00;;
70953;SDS011;58618;47.490;8.736;2023-04-25T12:20:21;1.20;;;0.88;;
70953;SDS011;58618;47.490;8.736;2023-04-25T12:23:12;7.13;;;0.85;;
70953;SDS011;58618;47.490;8.736;2023-04-25T12:25:59;1.30;;;0.80;;
70953;SDS011;58618;47.490;8.736;2023-04-25T12:28:49;1.23;;;0.90;;
70953;SDS011;58618;47.490;8.736;2023-04-25T12:31:36;1.27;;;0.88;;
70953;SDS011;58618;47.490;8.736;2023-04-25T12:34:24;0.90;;;0.80;;
70953;SDS011;58618;47.490;8.736;2023-04-25T12:37:13;1.10;;;0.80;;
70953;SDS011;58618;47.490;8.736;2023-04-25T12:40:01;2.47;;;1.00;;
70953;SDS011;58618;47.490;8.736;2023-04-25T12:42:50;1.10;;;0.83;;
70953;SDS011;58618;47.490;8.736;2023-04-25T12:45:37;1.55;;;0.95;;
70953;SDS011;58618;47.490;8.736;2023-04-25T12:48:24;1.17;;;0.90;;
70953;SDS011;58618;47.490;8.736;2023-04-25T12:51:12;0.80;;;0.70;;
70953;SDS011;58618;47.490;8.736;2023-04-25T12:54:00;0.95;;;0.70;;
70953;SDS011;58618;47.490;8.736;2023-04-25T12:56:48;1.53;;;0.77;;
70953;SDS011;58618;47.490;8.736;2023-04-25T12:59:36;1.10;;;0.90;;
70953;SDS011;58618;47.490;8.736;2023-04-25T13:02:23;1.25;;;0.80;;
70953;SDS011;58618;47.490;8.736;2023-04-25T13:05:10;1.85;;;1.00;;
70953;SDS011;58618;47.490;8.736;2023-04-25T13:07:58;1.58;;;1.10;;
70953;SDS011;58618;47.490;8.736;2023-04-25T13:10:48;1.07;;;0.90;;
70953;SDS011;58618;47.490;8.736;2023-04-25T13:13:35;3.63;;;1.00;;
70953;SDS011;58618;47.490;8.736;2023-04-25T13:16:24;1.92;;;0.80;;
70953;SDS011;58618;47.490;8.736;2023-04-25T13:19:11;1.83;;;0.90;;
70953;SDS011;58618;47.490;8.736;2023-04-25T13:21:58;2.65;;;0.80;;
70953;SDS011;58618;47.490;8.736;2023-04-25T13:24:46;1.40;;;0.70;;
70953;SDS011;58618;47.490;8.736;2023-04-25T13:27:36;1.30;;;0.98;;
70953;SDS011;58618;47.490;8.736;2023-04-25T13:30:25;2.38;;;1.13;;
70953;SDS011;58618;47.490;8.736;2023-04-25T13:33:12;1.40;;;0.93;;
70953;SDS011;58618;47.490;8.736;2023-04-25T13:36:00;1.20;;;0.90;;
70953;SDS011;58618;47.490;8.736;2023-04-25T13:38:47;1.00;;;0.80;;
70953;SDS011;58618;47.490;8.736;2023-04-25T13:41:35;1.25;;;1.00;;
70953;SDS011;58618;47.490;8.736;2023-04-25T13:44:23;1.80;;;1.00;;
70953;SDS011;58618;47.490;8.736;2023-04-25T13:47:11;3.17;;;0.98;;
70953;SDS011;58618;47.490;8.736;2023-04-25T13:49:58;3.33;;;1.20;;
70953;SDS011;58618;47.490;8.736;2023-04-25T13:52:46;1.30;;;0.90;;
70953;SDS011;58618;47.490;8.736;2023-04-25T13:55:33;1.02;;;0.80;;
70953;SDS011;58618;47.490;8.736;2023-04-25T13:58:21;1.23;;;0.90;;
70953;SDS011;58618;47.490;8.736;2023-04-25T14:01:09;1.30;;;0.80;;
70953;SDS011;58618;47.490;8.736;2023-04-25T14:03:57;1.08;;;0.80;;
70953;SDS011;58618;47.490;8.736;2023-04-25T14:06:44;1.40;;;0.90;;
70953;SDS011;58618;47.490;8.736;2023-04-25T14:09:32;1.95;;;0.93;;
70953;SDS011;58618;47.490;8.736;2023-04-25T14:12:20;1.42;;;1.00;;
70953;SDS011;58618;47.490;8.736;2023-04-25T14:15:07;1.23;;;0.93;;
70953;SDS011;58618;47.490;8.736;2023-04-25T14:17:56;1.25;;;1.00;;
70953;SDS011;58618;47.490;8.736;2023-04-25T14:20:43;1.57;;;1.00;;
70953;SDS011;58618;47.490;8.736;2023-04-25T14:23:31;1.30;;;1.00;;
70953;SDS011;58618;47.490;8.736;2023-04-25T14:26:19;1.63;;;0.85;;
70953;SDS011;58618;47.490;8.736;2023-04-25T14:29:10;2.17;;;1.20;;
70953;SDS011;58618;47.490;8.736;2023-04-25T14:31:58;2.05;;;0.85;;
70953;SDS011;58618;47.490;8.736;2023-04-25T14:34:47;1.63;;;1.10;;
70953;SDS011;58618;47.490;8.736;2023-04-25T14:37:34;1.10;;;1.00;;
70953;SDS011;58618;47.490;8.736;2023-04-25T14:40:22;1.80;;;1.08;;
70953;SDS011;58618;47.490;8.736;2023-04-25T14:43:09;1.05;;;0.80;;
70953;SDS011;58618;47.490;8.736;2023-04-25T14:45:56;0.90;;;0.80;;
70953;SDS011;58618;47.490;8.736;2023-04-25T14:48:44;2.03;;;0.80;;
70953;SDS011;58618;47.490;8.736;2023-04-25T14:51:34;1.00;;;0.82;;
70953;SDS011;58618;47.490;8.736;2023-04-25T14:54:21;1.33;;;1.00;;
70953;SDS011;58618;47.490;8.736;2023-04-25T14:57:08;1.20;;;1.00;;
70953;SDS011;58618;47.490;8.736;2023-04-25T14:59:56;1.45;;;0.90;;
70953;SDS011;58618;47.490;8.736;2023-04-25T15:02:43;1.50;;;0.90;;
70953;SDS011;58618;47.490;8.736;2023-04-25T15:05:31;1.85;;;0.85;;
70953;SDS011;58618;47.490;8.736;2023-04-25T15:08:19;1.10;;;0.90;;
70953;SDS011;58618;47.490;8.736;2023-04-25T15:11:07;1.38;;;1.02;;
70953;SDS011;58618;47.490;8.736;2023-04-25T15:13:54;1.40;;;1.10;;
70953;SDS011;58618;47.490;8.736;2023-04-25T15:16:41;1.20;;;0.97;;
70953;SDS011;58618;47.490;8.736;2023-04-25T15:19:29;1.48;;;0.90;;
70953;SDS011;58618;47.490;8.736;2023-04-25T15:22:16;4.43;;;1.05;;
70953;SDS011;58618;47.490;8.736;2023-04-25T15:25:05;1.35;;;1.20;;
70953;SDS011;58618;47.490;8.736;2023-04-25T15:27:54;1.70;;;1.35;;
70953;SDS011;58618;47.490;8.736;2023-04-25T15:30:41;1.20;;;1.00;;
70953;SDS011;58618;47.490;8.736;2023-04-25T15:33:29;2.55;;;0.90;;
70953;SDS011;58618;47.490;8.736;2023-04-25T15:36:16;2.75;;;1.30;;
70953;SDS011;58618;47.490;8.736;2023-04-25T15:39:04;2.55;;;1.10;;
70953;SDS011;58618;47.490;8.736;2023-04-25T15:41:52;1.40;;;1.00;;
70953;SDS011;58618;47.490;8.736;2023-04-25T15:44:41;1.83;;;0.90;;
70953;SDS011;58618;47.490;8.736;2023-04-25T15:47:28;1.17;;;0.90;;
70953;SDS011;58618;47.490;8.736;2023-04-25T15:50:15;1.50;;;1.10;;
70953;SDS011;58618;47.490;8.736;2023-04-25T15:53:03;1.10;;;0.90;;
70953;SDS011;58618;47.490;8.736;2023-04-25T15:55:50;0.80;;;0.60;;
70953;SDS011;58618;47.490;8.736;2023-04-25T15:58:39;1.60;;;0.90;;
70953;SDS011;58618;47.490;8.736;2023-04-25T16:01:26;0.68;;;0.60;;
70953;SDS011;58618;47.490;8.736;2023-04-25T16:04:15;0.80;;;0.70;;
70953;SDS011;58618;47.490;8.736;2023-04-25T16:07:03;1.33;;;0.98;;
70953;SDS011;58618;47.490;8.736;2023-04-25T16:09:50;2.45;;;0.90;;
70953;SDS011;58618;47.490;8.736;2023-04-25T16:12:37;1.57;;;0.83;;
70953;SDS011;58618;47.490;8.736;2023-04-25T16:15:26;1.05;;;0.90;;
70953;SDS011;58618;47.490;8.736;2023-04-25T16:18:14;1.48;;;0.70;;
70953;SDS011;58618;47.490;8.736;2023-04-25T16:21:01;0.98;;;0.88;;
70953;SDS011;58618;47.490;8.736;2023-04-25T16:23:49;1.05;;;0.85;;
70953;SDS011;58618;47.490;8.736;2023-04-25T16:26:36;1.10;;;0.70;;
70953;SDS011;58618;47.490;8.736;2023-04-25T16:29:25;1.10;;;0.82;;
70953;SDS011;58618;47.490;8.736;2023-04-25T16:32:14;1.20;;;0.90;;
70953;SDS011;58618;47.490;8.736;2023-04-25T16:35:07;1.10;;;0.90;;
70953;SDS011;58618;47.490;8.736;2023-04-25T16:37:57;1.20;;;0.80;;
70953;SDS011;58618;47.490;8.736;2023-04-25T16:40:45;1.23;;;0.87;;
70953;SDS011;58618;47.490;8.736;2023-04-25T16:43:32;2.42;;;1.10;;
70953;SDS011;58618;47.490;8.736;2023-04-25T16:46:20;1.17;;;0.90;;
70953;SDS011;58618;47.490;8.736;2023-04-25T16:49:09;0.93;;;0.73;;
70953;SDS011;58618;47.490;8.736;2023-04-25T16:51:57;1.27;;;1.08;;
70953;SDS011;58618;47.490;8.736;2023-04-25T16:54:44;1.10;;;0.90;;